Time;durP1;ratioP1;P1;durP2;ratioP2;P2;SDS_P1;SDS_P2;PMS_P1;PMS_P2;Temp;Humidity;BMP_temperature;BMP_pressure;BME280_temperature;BME280_humidity;BME280_pressure;Samples;Min_cycle;Max_cycle;Signal;HPM_P1;HPM_P2
2022/04/01 00:01:40;;;;;;;6.78;5.30;;;5.60;99.90;;;;;;1939745;74;21047;-73
2022/04/01 00:04:08;;;;;;;6.45;5.33;;;5.50;99.90;;;;;;1939780;74;21118;-73
2022/04/01 00:06:35;;;;;;;5.75;5.03;;;5.50;99.90;;;;;;1938678;73;21124;-73
2022/04/01 00:09:02;;;;;;;6.90;5.50;;;5.40;99.90;;;;;;1936811;74;21125;-74
2022/04/01 00:11:30;;;;;;;10.00;5.20;;;5.50;99.90;;;;;;1939805;74;21532;-72
2022/04/01 00:13:58;;;;;;;5.72;5.03;;;5.50;99.90;;;;;;1945834;73;21550;-75
2022/04/01 00:16:26;;;;;;;5.92;5.22;;;5.50;99.90;;;;;;1937559;73;21067;-73
2022/04/01 00:18:55;;;;;;;7.35;5.53;;;5.40;99.90;;;;;;1940636;73;21455;-72
2022/04/01 00:21:22;;;;;;;9.80;6.10;;;5.40;99.90;;;;;;1939942;74;21050;-75
2022/04/01 00:23:50;;;;;;;6.12;5.28;;;5.50;99.90;;;;;;1939919;74;21031;-73
2022/04/01 00:26:17;;;;;;;8.10;5.90;;;5.50;99.90;;;;;;1948946;73;21062;-74
2022/04/01 00:28:44;;;;;;;7.53;6.20;;;5.50;99.90;;;;;;1943839;73;21035;-74
2022/04/01 00:31:12;;;;;;;7.83;6.50;;;5.50;99.90;;;;;;1921373;73;21112;-74
2022/04/01 00:33:39;;;;;;;9.33;6.67;;;5.50;99.90;;;;;;1939128;73;21449;-74
2022/04/01 00:36:06;;;;;;;8.45;7.20;;;5.40;99.90;;;;;;1921825;73;21143;-75
2022/04/01 00:38:34;;;;;;;7.72;6.83;;;5.40;99.90;;;;;;1947406;73;21058;-76
2022/04/01 00:41:03;;;;;;;25.02;7.65;;;5.50;99.90;;;;;;1940368;73;21074;-74
2022/04/01 00:43:32;;;;;;;8.95;7.17;;;5.40;99.90;;;;;;1939092;73;21144;-74
2022/04/01 00:45:59;;;;;;;11.03;7.47;;;5.40;99.90;;;;;;1939912;74;21136;-74
2022/04/01 00:48:27;;;;;;;9.35;7.25;;;5.40;99.90;;;;;;1939762;74;21113;-74
2022/04/01 00:50:55;;;;;;;10.03;7.22;;;5.40;99.90;;;;;;1949422;73;21066;-74
2022/04/01 00:53:23;;;;;;;8.80;7.35;;;5.40;99.90;;;;;;1938953;73;21071;-74
2022/04/01 00:55:51;;;;;;;10.43;7.47;;;5.40;99.90;;;;;;1949449;73;21056;-74
2022/04/01 00:58:19;;;;;;;9.48;7.60;;;5.40;99.90;;;;;;1941263;73;21159;-74
2022/04/01 01:00:46;;;;;;;10.50;7.75;;;5.50;99.90;;;;;;1945369;73;21135;-74
2022/04/01 01:03:14;;;;;;;9.10;7.20;;;5.40;99.90;;;;;;1939790;74;21148;-75
2022/04/01 01:05:41;;;;;;;10.15;7.60;;;5.30;99.90;;;;;;1937188;74;21057;-74
2022/04/01 01:08:08;;;;;;;10.65;8.33;;;5.20;99.90;;;;;;1959165;73;21455;-74
2022/04/01 01:10:36;;;;;;;8.80;7.90;;;5.20;99.90;;;;;;1950109;73;21055;-73
2022/04/01 01:13:03;;;;;;;13.53;7.12;;;5.30;99.90;;;;;;1955560;73;21043;-73
2022/04/01 01:15:30;;;;;;;8.88;7.30;;;5.20;99.90;;;;;;1939920;74;21081;-74
2022/04/01 01:17:58;;;;;;;8.13;7.15;;;5.20;99.90;;;;;;1938190;73;21510;-73
2022/04/01 01:20:25;;;;;;;8.40;7.17;;;5.20;99.90;;;;;;1941477;73;21062;-73
2022/04/01 01:22:53;;;;;;;8.23;6.78;;;5.20;99.90;;;;;;1935692;74;21177;-74
2022/04/01 01:25:22;;;;;;;7.20;6.47;;;5.10;99.90;;;;;;1943889;73;21058;-74
2022/04/01 01:27:49;;;;;;;7.05;6.35;;;5.20;99.90;;;;;;1938831;73;21055;-73
2022/04/01 01:30:16;;;;;;;9.65;6.83;;;5.20;99.90;;;;;;1947065;73;21504;-74
2022/04/01 01:32:44;;;;;;;9.60;6.53;;;5.20;99.90;;;;;;1939992;73;21137;-74
2022/04/01 01:35:29;;;;;;;6.55;5.80;;;5.20;99.90;;;;;;1944755;73;21124;-73
2022/04/01 01:37:56;;;;;;;8.83;6.53;;;5.20;99.90;;;;;;1935895;73;21481;-74
2022/04/01 01:40:24;;;;;;;12.37;6.95;;;5.20;99.90;;;;;;1955129;73;21043;-74
2022/04/01 01:42:51;;;;;;;6.97;6.17;;;5.20;99.90;;;;;;1944143;73;21124;-74
2022/04/01 01:45:19;;;;;;;8.53;6.62;;;5.10;99.90;;;;;;1944813;73;21210;-74
2022/04/01 01:47:46;;;;;;;8.55;6.67;;;5.10;99.90;;;;;;1945235;73;21073;-74
2022/04/01 01:55:44;;;;;;;8.15;6.25;;;5.10;99.90;;;;;;1939844;74;21137;-73
2022/04/01 01:58:12;;;;;;;8.00;6.50;;;5.10;99.90;;;;;;1943565;73;21062;-73
2022/04/01 02:00:39;;;;;;;9.70;6.95;;;5.00;99.90;;;;;;1941701;73;21063;-73
2022/04/01 02:03:07;;;;;;;8.20;7.03;;;5.00;99.90;;;;;;1940094;74;21497;-73
2022/04/01 02:05:34;;;;;;;7.53;6.72;;;5.00;99.90;;;;;;1942463;73;21067;-73
2022/04/01 02:08:02;;;;;;;12.35;7.08;;;4.90;99.90;;;;;;1939331;74;21003;-74
2022/04/01 02:10:30;;;;;;;7.97;6.95;;;5.00;99.90;;;;;;1950284;73;21067;-73
2022/04/01 02:12:58;;;;;;;8.25;7.03;;;4.90;99.90;;;;;;1932258;73;21067;-73
2022/04/01 02:15:25;;;;;;;10.53;6.95;;;4.90;99.90;;;;;;1942052;74;21095;-73
2022/04/01 02:17:53;;;;;;;8.58;6.97;;;4.90;99.90;;;;;;1938756;73;21085;-72
2022/04/01 02:20:20;;;;;;;9.78;6.65;;;5.00;99.90;;;;;;1946731;73;21043;-73
2022/04/01 02:22:48;;;;;;;9.50;7.15;;;5.00;99.90;;;;;;1953302;73;21063;-73
2022/04/01 02:25:15;;;;;;;8.53;7.15;;;5.00;99.90;;;;;;1949221;73;21084;-72
2022/04/01 02:27:43;;;;;;;8.70;6.55;;;4.90;99.90;;;;;;1943674;73;21034;-74
2022/04/01 02:30:11;;;;;;;9.28;7.25;;;4.90;99.90;;;;;;1956523;73;21078;-73
2022/04/01 02:32:40;;;;;;;9.78;6.58;;;5.00;99.90;;;;;;1924411;74;21480;-73
2022/04/01 02:35:08;;;;;;;7.42;6.50;;;5.00;99.90;;;;;;1938435;73;21466;-74
2022/04/01 02:37:36;;;;;;;7.62;6.83;;;5.00;99.90;;;;;;1939939;74;21128;-73
2022/04/01 02:40:04;;;;;;;8.18;7.00;;;5.00;99.90;;;;;;1938990;74;21023;-74
2022/04/01 02:42:31;;;;;;;9.25;7.45;;;5.00;99.90;;;;;;1953373;73;21046;-73
2022/04/01 02:44:59;;;;;;;8.68;7.30;;;5.00;99.90;;;;;;1938804;73;21106;-74
2022/04/01 02:47:26;;;;;;;9.58;7.92;;;5.00;99.90;;;;;;1940251;73;21122;-74
2022/04/01 02:49:54;;;;;;;8.83;7.50;;;4.90;99.90;;;;;;1942333;73;21067;-74
2022/04/01 02:52:21;;;;;;;11.90;8.48;;;4.80;99.90;;;;;;1940000;73;21507;-75
2022/04/01 02:54:49;;;;;;;9.50;7.72;;;4.90;99.90;;;;;;1943301;73;21114;-75
2022/04/01 02:57:16;;;;;;;9.13;7.53;;;4.90;99.90;;;;;;1939992;74;21415;-74
2022/04/01 02:59:44;;;;;;;8.58;7.50;;;4.90;99.90;;;;;;1946062;73;21111;-74
2022/04/01 03:02:11;;;;;;;11.83;7.67;;;4.90;99.90;;;;;;1915322;73;21069;-74
2022/04/01 03:04:39;;;;;;;9.08;7.55;;;4.90;99.90;;;;;;1954025;73;21063;-74
2022/04/01 03:07:06;;;;;;;13.30;7.78;;;4.90;99.90;;;;;;1942497;73;21148;-73
2022/04/01 03:09:34;;;;;;;9.98;8.03;;;4.90;99.90;;;;;;1939955;74;21047;-74
2022/04/01 03:12:01;;;;;;;10.72;8.35;;;4.90;99.90;;;;;;1940383;74;21007;-75
2022/04/01 03:14:29;;;;;;;8.78;7.53;;;4.80;99.90;;;;;;1952055;73;21205;-75
2022/04/01 03:16:56;;;;;;;11.45;8.58;;;4.80;99.90;;;;;;1947699;73;21212;-74
2022/04/01 03:19:24;;;;;;;10.90;7.80;;;4.80;99.90;;;;;;1943258;73;21083;-74
2022/04/01 03:21:51;;;;;;;7.85;7.05;;;4.80;99.90;;;;;;1938736;73;21590;-74
2022/04/01 03:24:19;;;;;;;7.92;6.97;;;4.80;99.90;;;;;;1943462;73;21050;-73
2022/04/01 03:26:47;;;;;;;9.53;7.40;;;4.80;99.90;;;;;;1942361;73;21074;-74
2022/04/01 03:29:14;;;;;;;8.75;7.50;;;4.90;99.90;;;;;;1936070;73;21057;-73
2022/04/01 03:31:42;;;;;;;8.48;6.83;;;4.90;99.90;;;;;;1954017;73;21120;-74
2022/04/01 03:34:09;;;;;;;7.92;7.12;;;4.90;99.90;;;;;;1953383;73;21141;-73
2022/04/01 03:36:37;;;;;;;8.85;7.42;;;4.90;99.90;;;;;;1939953;74;21467;-73
2022/04/01 03:39:04;;;;;;;7.05;6.37;;;4.80;99.90;;;;;;1952842;73;21498;-73
2022/04/01 03:41:32;;;;;;;8.83;6.83;;;4.80;99.90;;;;;;1939003;73;21230;-73
2022/04/01 03:44:02;;;;;;;9.15;7.25;;;4.80;99.90;;;;;;1938904;73;21192;-73
2022/04/01 03:46:36;;;;;;;;;;;4.70;99.90;;;;;;1943043;73;21067;-73
2022/04/01 03:49:07;;;;;;;7.53;6.75;;;4.70;99.90;;;;;;1930590;74;20151;-73
2022/04/01 03:51:34;;;;;;;8.05;6.90;;;4.60;99.90;;;;;;1938011;72;21072;-73
2022/04/01 03:54:03;;;;;;;6.90;6.20;;;4.60;99.90;;;;;;1948156;73;21031;-74
2022/04/01 03:56:32;;;;;;;7.00;6.30;;;4.60;99.90;;;;;;1951906;73;21139;-72
2022/04/01 03:59:01;;;;;;;7.67;6.90;;;4.50;99.90;;;;;;1943608;73;21132;-74
2022/04/01 04:01:30;;;;;;;7.55;6.75;;;4.60;99.90;;;;;;1941455;73;21143;-72
2022/04/01 04:03:58;;;;;;;8.98;6.50;;;4.60;99.90;;;;;;1942967;73;21147;-75
2022/04/01 04:06:25;;;;;;;6.83;5.95;;;4.50;99.90;;;;;;1975129;72;21520;-75
2022/04/01 04:08:55;;;;;;;6.87;6.12;;;4.50;99.90;;;;;;1947254;73;21074;-74
2022/04/01 04:11:29;;;;;;;7.20;6.42;;;4.50;99.90;;;;;;1938322;74;21046;-74
2022/04/01 04:13:58;;;;;;;9.43;6.55;;;4.40;99.90;;;;;;1950859;73;21035;-74
2022/04/01 04:16:29;;;;;;;6.72;5.90;;;4.40;99.90;;;;;;1939886;74;21105;-75
2022/04/01 04:19:07;;;;;;;5.87;5.37;;;4.40;99.90;;;;;;1940833;73;21075;-75
2022/04/01 04:21:42;;;;;;;6.30;5.70;;;4.40;99.90;;;;;;1934302;74;21563;-73
2022/04/01 04:24:12;;;;;;;7.25;6.17;;;4.30;99.90;;;;;;1947088;73;21186;-75
2022/04/01 04:26:48;;;;;;;6.55;5.95;;;4.30;99.90;;;;;;1939968;73;21427;-76
2022/04/01 04:29:17;;;;;;;6.33;5.72;;;4.30;99.90;;;;;;1939893;74;21178;-75
2022/04/01 04:31:59;;;;;;;6.87;6.17;;;4.40;99.90;;;;;;1939965;74;21104;-74
2022/04/01 04:34:29;;;;;;;5.97;5.42;;;4.40;99.90;;;;;;1938863;74;21011;-75
2022/04/01 04:36:57;;;;;;;7.95;6.05;;;4.30;99.90;;;;;;1947084;73;21063;-74
2022/04/01 04:39:33;;;;;;;6.00;5.40;;;4.30;99.90;;;;;;1946345;73;21519;-73
2022/04/01 04:42:04;;;;;;;6.35;5.72;;;4.30;99.90;;;;;;1950543;73;21039;-74
2022/04/01 04:44:31;;;;;;;7.10;5.83;;;4.40;99.90;;;;;;1943826;73;21145;-74
2022/04/01 04:47:02;;;;;;;6.60;6.00;;;4.30;99.90;;;;;;1939945;74;21071;-75
2022/04/01 04:49:29;;;;;;;8.53;6.25;;;4.30;99.90;;;;;;1940118;74;21124;-75
2022/04/01 04:51:58;;;;;;;6.00;5.47;;;4.40;99.90;;;;;;1939831;74;21039;-74
2022/04/01 04:54:27;;;;;;;6.50;5.80;;;4.50;99.90;;;;;;1956195;73;21153;-73
2022/04/01 04:56:54;;;;;;;6.22;5.62;;;4.40;99.90;;;;;;1943959;73;21031;-74
2022/04/01 04:59:22;;;;;;;7.42;6.15;;;4.30;99.90;;;;;;1935491;74;21128;-73
2022/04/01 05:02:05;;;;;;;6.37;5.78;;;4.30;99.90;;;;;;1951524;73;21144;-73
2022/04/01 05:04:54;;;;;;;6.12;5.00;;;4.40;99.90;;;;;;1940190;74;21050;-74
2022/04/01 05:07:32;;;;;;;7.05;5.25;;;4.30;99.90;;;;;;1942801;73;21074;-74
2022/04/01 05:10:09;;;;;;;5.20;4.70;;;4.40;99.90;;;;;;1942660;73;21651;-74
2022/04/01 05:12:51;;;;;;;8.00;4.97;;;4.30;99.90;;;;;;1938876;73;21124;-73
2022/04/01 05:15:37;;;;;;;5.22;4.42;;;4.20;99.90;;;;;;1949818;72;21150;-74
2022/04/01 05:18:06;;;;;;;4.70;4.30;;;4.20;99.90;;;;;;1954309;72;21091;-74
2022/04/01 05:20:35;;;;;;;5.25;4.67;;;4.10;99.90;;;;;;1946211;72;21449;-74
2022/04/01 05:23:15;;;;;;;5.10;4.70;;;4.10;99.90;;;;;;1940342;74;21036;-73
2022/04/01 05:25:49;;;;;;;6.92;4.87;;;4.10;99.90;;;;;;1939291;73;21076;-70
2022/04/01 05:28:25;;;;;;;5.75;4.87;;;4.10;99.90;;;;;;1944205;73;21478;-72
2022/04/01 05:30:58;;;;;;;4.78;4.37;;;4.20;99.90;;;;;;1942676;73;21132;-71
2022/04/01 05:33:27;;;;;;;4.92;4.45;;;4.20;99.90;;;;;;1931064;73;21059;-71
2022/04/01 05:35:57;;;;;;;5.60;4.87;;;4.20;99.90;;;;;;1938497;74;20988;-70
2022/04/01 05:38:24;;;;;;;6.62;4.80;;;4.20;99.90;;;;;;1940303;74;21128;-71
2022/04/01 05:40:52;;;;;;;5.40;4.70;;;4.30;99.90;;;;;;1948483;73;21054;-71
2022/04/01 05:43:19;;;;;;;6.67;4.40;;;4.30;99.90;;;;;;1943678;73;21132;-71
2022/04/01 05:45:49;;;;;;;5.30;4.80;;;4.30;99.90;;;;;;1942119;73;21053;-71
2022/04/01 05:48:16;;;;;;;4.95;4.42;;;4.30;99.90;;;;;;1950716;72;21546;-75
2022/04/01 05:50:43;;;;;;;4.20;3.80;;;4.30;99.90;;;;;;1942439;73;21066;-71
2022/04/01 05:53:10;;;;;;;4.70;4.30;;;4.40;99.90;;;;;;1955049;73;21066;-71
2022/04/01 05:55:38;;;;;;;4.95;4.53;;;4.30;99.90;;;;;;1952867;73;21072;-73
2022/04/01 05:58:06;;;;;;;4.70;4.20;;;4.40;99.90;;;;;;1941067;74;21105;-70
2022/04/01 06:00:39;;;;;;;5.67;4.55;;;4.40;99.90;;;;;;1945571;73;21071;-70
2022/04/01 06:03:24;;;;;;;4.83;4.25;;;4.30;99.90;;;;;;1933993;73;21064;-72
2022/04/01 06:06:03;;;;;;;4.80;4.35;;;4.30;99.90;;;;;;1937775;73;21162;-71
2022/04/01 06:08:53;;;;;;;4.40;4.00;;;4.30;99.90;;;;;;1940137;73;21071;-74
2022/04/01 06:11:25;;;;;;;6.15;4.40;;;4.40;99.90;;;;;;1940050;74;21086;-70
2022/04/01 06:14:04;;;;;;;4.87;3.95;;;4.30;99.90;;;;;;1941163;73;21055;-70
2022/04/01 06:16:56;;;;;;;4.47;4.08;;;4.30;99.90;;;;;;1935983;74;21126;-73
2022/04/01 06:19:34;;;;;;;4.85;4.30;;;4.30;99.90;;;;;;1945615;73;21126;-70
2022/04/01 06:22:08;;;;;;;4.37;3.98;;;4.30;99.90;;;;;;1943767;73;21475;-69
2022/04/01 06:24:39;;;;;;;4.15;3.80;;;4.30;99.90;;;;;;1939245;73;21058;-69
2022/04/01 06:27:07;;;;;;;5.50;4.37;;;4.30;99.90;;;;;;1938318;74;21116;-69
2022/04/01 06:29:42;;;;;;;5.10;4.30;;;4.30;99.90;;;;;;1939476;74;21572;-69
2022/04/01 06:32:15;;;;;;;5.75;3.90;;;4.20;99.90;;;;;;1953121;73;21113;-70
2022/04/01 06:34:57;;;;;;;3.92;3.60;;;4.30;99.90;;;;;;1943400;73;21076;-72
2022/04/01 06:37:29;;;;;;;4.00;3.65;;;4.30;99.90;;;;;;1948866;73;21120;-69
2022/04/01 06:40:03;;;;;;;4.12;3.83;;;4.30;99.90;;;;;;1944607;73;21411;-69
2022/04/01 06:42:33;;;;;;;4.47;4.08;;;4.40;99.90;;;;;;1949483;73;21482;-70
2022/04/01 06:45:01;;;;;;;4.55;3.58;;;4.40;99.90;;;;;;1940392;73;21149;-70
2022/04/01 06:47:30;;;;;;;4.30;3.90;;;4.30;99.90;;;;;;1938005;73;21455;-70
2022/04/01 06:49:57;;;;;;;5.28;4.33;;;4.40;99.90;;;;;;1942499;73;21074;-69
2022/04/01 06:52:26;;;;;;;3.95;3.55;;;4.50;99.90;;;;;;1942507;73;21051;-70
2022/04/01 06:54:56;;;;;;;4.47;3.55;;;4.40;99.90;;;;;;1940457;73;21067;-70
2022/04/01 06:57:24;;;;;;;4.03;3.70;;;4.40;99.90;;;;;;1938896;74;21144;-69
2022/04/01 06:59:52;;;;;;;5.30;3.45;;;4.30;99.90;;;;;;1939901;74;21470;-70
2022/04/01 07:02:19;;;;;;;4.50;4.10;;;4.30;99.90;;;;;;1942122;73;21501;-70
2022/04/01 07:04:46;;;;;;;4.58;4.17;;;4.30;99.90;;;;;;1944672;73;21071;-69
2022/04/01 07:07:14;;;;;;;4.08;3.67;;;4.40;99.90;;;;;;1936778;74;21036;-71
2022/04/01 07:09:41;;;;;;;3.95;3.65;;;4.40;99.90;;;;;;1939889;74;21027;-71
2022/04/01 07:12:09;;;;;;;4.45;4.05;;;4.50;99.90;;;;;;1936138;73;21387;-72
2022/04/01 07:14:36;;;;;;;4.72;4.20;;;4.60;99.90;;;;;;1942608;73;21063;-70
2022/04/01 07:17:03;;;;;;;4.92;4.25;;;4.50;99.90;;;;;;1940068;74;21059;-71
2022/04/01 07:19:31;;;;;;;4.67;4.00;;;4.50;99.90;;;;;;1940038;74;21160;-68
2022/04/01 07:21:59;;;;;;;5.67;4.15;;;4.50;99.90;;;;;;1945056;73;21037;-70
2022/04/01 07:24:26;;;;;;;4.83;3.95;;;4.60;99.90;;;;;;1940153;74;21047;-70
2022/04/01 07:26:53;;;;;;;4.20;3.85;;;4.70;99.90;;;;;;1939760;73;21502;-69
2022/04/01 07:29:21;;;;;;;4.60;4.20;;;4.80;99.90;;;;;;1939884;74;21027;-70
2022/04/01 07:34:36;;;;;;;4.45;4.10;;;4.60;99.90;;;;;;1939973;74;21064;-68
2022/04/01 07:37:04;;;;;;;4.60;4.15;;;4.70;99.90;;;;;;1940064;74;21077;-68
2022/04/01 07:39:32;;;;;;;5.25;4.62;;;4.70;99.90;;;;;;1942511;73;21128;-70
2022/04/01 07:42:00;;;;;;;4.95;4.50;;;4.60;99.90;;;;;;1939937;74;21066;-68
2022/04/01 07:44:27;;;;;;;5.35;4.85;;;4.50;99.90;;;;;;1936685;74;21068;-69
2022/04/01 07:46:55;;;;;;;4.85;4.45;;;4.40;99.90;;;;;;1950158;73;21109;-69
2022/04/01 07:49:22;;;;;;;5.28;4.72;;;4.40;99.90;;;;;;1938540;73;21057;-69
2022/04/01 07:51:50;;;;;;;7.40;5.72;;;4.40;99.90;;;;;;1944557;73;21563;-69
2022/04/01 07:54:17;;;;;;;5.33;4.85;;;4.40;99.90;;;;;;1939992;73;21133;-69
2022/04/01 07:56:45;;;;;;;7.75;5.35;;;4.50;99.90;;;;;;1944934;73;21135;-69
2022/04/01 07:59:16;;;;;;;5.00;4.50;;;4.40;99.90;;;;;;1947723;73;21041;-70
2022/04/01 08:01:50;;;;;;;5.30;4.80;;;4.50;99.90;;;;;;1939965;74;21447;-70
2022/04/01 08:04:17;;;;;;;4.83;4.42;;;4.60;99.90;;;;;;1938795;73;21475;-69
2022/04/01 08:06:44;;;;;;;5.45;4.95;;;4.50;99.90;;;;;;1937217;73;21074;-71
2022/04/01 08:09:11;;;;;;;4.92;4.53;;;4.50;99.90;;;;;;1940071;74;21116;-80
2022/04/01 08:11:39;;;;;;;4.87;4.03;;;4.40;99.90;;;;;;1939928;74;21047;-71
2022/04/01 08:14:06;;;;;;;3.58;3.27;;;4.50;99.90;;;;;;1939766;74;21058;-72
2022/04/01 08:16:33;;;;;;;3.67;3.37;;;4.50;99.90;;;;;;1946488;73;21497;-73
2022/04/01 08:19:02;;;;;;;3.83;3.42;;;4.50;99.90;;;;;;1944154;73;21066;-70
2022/04/01 08:21:31;;;;;;;6.10;3.67;;;4.50;99.90;;;;;;1942517;72;21193;-70
2022/04/01 08:23:59;;;;;;;4.25;3.45;;;4.50;99.90;;;;;;1939890;74;21142;-68
2022/04/01 08:26:26;;;;;;;5.00;3.70;;;4.50;99.90;;;;;;1939945;74;21035;-70
2022/04/01 08:28:55;;;;;;;3.87;3.00;;;4.50;99.90;;;;;;1939012;74;21443;-68
2022/04/01 08:31:24;;;;;;;3.10;2.85;;;4.50;99.90;;;;;;1938029;73;21111;-70
2022/04/01 08:33:54;;;;;;;3.58;2.87;;;4.50;99.90;;;;;;1957355;73;21501;-68
2022/04/01 08:36:21;;;;;;;5.08;2.60;;;4.60;99.90;;;;;;1939765;74;21096;-69
2022/04/01 08:38:49;;;;;;;3.67;2.98;;;4.60;99.90;;;;;;1938449;74;21030;-68
2022/04/01 08:41:20;;;;;;;2.85;2.55;;;4.50;99.90;;;;;;1942241;73;21043;-68
2022/04/01 08:43:48;;;;;;;2.70;2.50;;;4.50;99.90;;;;;;1939617;74;21055;-69
2022/04/01 08:46:16;;;;;;;2.72;2.52;;;4.60;99.90;;;;;;1947571;73;21140;-69
2022/04/01 08:48:43;;;;;;;2.52;2.27;;;4.70;99.90;;;;;;1948514;73;21062;-69
2022/04/01 08:51:13;;;;;;;2.30;2.10;;;4.70;99.90;;;;;;1973020;72;21522;-70
2022/04/01 08:53:43;;;;;;;2.55;2.35;;;4.60;99.90;;;;;;1938498;73;21196;-74
2022/04/01 08:56:10;;;;;;;2.12;1.57;;;4.70;99.90;;;;;;1943939;73;21113;-75
2022/04/01 08:58:37;;;;;;;2.30;1.90;;;4.60;99.90;;;;;;1939835;74;20995;-73
2022/04/01 09:01:05;;;;;;;1.67;1.57;;;4.60;99.90;;;;;;1937545;73;21066;-71
2022/04/01 09:03:34;;;;;;;2.17;1.98;;;4.70;99.90;;;;;;1923500;74;21133;-74
2022/04/01 09:06:03;;;;;;;2.10;1.90;;;4.80;99.90;;;;;;1936358;73;21042;-76
2022/04/01 09:08:35;;;;;;;1.77;1.67;;;4.70;99.90;;;;;;1943505;73;21086;-70
2022/04/01 09:11:04;;;;;;;2.25;1.80;;;4.40;99.90;;;;;;1942232;72;21156;-72
2022/04/01 09:13:37;;;;;;;2.20;2.10;;;4.60;99.90;;;;;;1939734;73;21120;-71
2022/04/01 09:16:04;;;;;;;2.85;2.62;;;4.80;99.90;;;;;;1940262;72;21450;-71
2022/04/01 09:18:40;;;;;;;3.67;2.80;;;4.90;99.90;;;;;;1943536;73;21070;-72
2022/04/01 09:21:09;;;;;;;3.20;2.90;;;4.80;99.90;;;;;;1943645;73;21078;-73
2022/04/01 09:23:37;;;;;;;3.03;2.73;;;4.80;99.90;;;;;;1936619;73;21062;-73
2022/04/01 09:26:05;;;;;;;3.20;2.80;;;4.60;99.90;;;;;;1937950;73;21058;-71
2022/04/01 09:28:37;;;;;;;2.65;2.45;;;4.50;99.90;;;;;;1935534;74;21063;-72
2022/04/01 09:31:07;;;;;;;3.15;2.95;;;4.50;99.90;;;;;;1958644;73;21030;-72
2022/04/01 09:33:36;;;;;;;3.57;2.73;;;4.50;99.90;;;;;;1940193;74;21132;-72
2022/04/01 09:36:06;;;;;;;3.55;2.67;;;4.60;99.90;;;;;;1935474;73;21027;-73
2022/04/01 09:38:36;;;;;;;2.67;2.47;;;4.50;99.90;;;;;;1954540;73;21043;-72
2022/04/01 09:41:04;;;;;;;2.90;2.70;;;4.50;99.90;;;;;;1940298;72;21048;-73
2022/04/01 09:43:39;;;;;;;2.92;2.72;;;4.50;99.90;;;;;;1941332;73;21206;-72
2022/04/01 09:46:26;;;;;;;3.22;2.87;;;4.60;99.90;;;;;;1940196;73;21248;-69
2022/04/01 09:49:00;;;;;;;2.98;2.60;;;4.70;99.90;;;;;;1945086;73;21159;-72
2022/04/01 09:51:38;;;;;;;2.90;2.62;;;4.70;99.90;;;;;;1944082;73;21122;-71
2022/04/01 09:54:14;;;;;;;2.72;2.52;;;4.70;99.90;;;;;;1949767;73;21033;-72
2022/04/01 09:56:54;;;;;;;2.42;2.17;;;4.70;99.90;;;;;;1934112;73;21474;-71
2022/04/01 09:59:24;;;;;;;2.15;2.05;;;4.70;99.90;;;;;;1946179;72;21052;-72
2022/04/01 10:01:58;;;;;;;2.70;2.30;;;4.60;99.90;;;;;;1937169;73;21041;-72
2022/04/01 10:04:38;;;;;;;3.30;2.55;;;4.40;99.90;;;;;;1939434;73;21528;-71
2022/04/01 10:07:12;;;;;;;3.12;2.83;;;4.40;99.90;;;;;;1940860;74;21095;-71
2022/04/01 10:09:50;;;;;;;2.52;2.33;;;4.50;99.90;;;;;;1940140;73;21180;-69
2022/04/01 10:12:24;;;;;;;2.45;2.25;;;4.40;99.90;;;;;;1936468;73;21231;-74
2022/04/01 10:15:00;;;;;;;3.30;3.00;;;4.40;99.90;;;;;;1941211;72;21152;-69
2022/04/01 10:17:29;;;;;;;2.90;2.70;;;4.40;99.90;;;;;;1939682;73;21063;-70
2022/04/01 10:19:58;;;;;;;2.77;2.58;;;4.30;99.90;;;;;;1954589;73;21058;-70
2022/04/01 10:22:27;;;;;;;3.22;2.87;;;4.20;99.90;;;;;;1952617;73;21062;-71
2022/04/01 10:25:09;;;;;;;3.10;2.90;;;4.20;99.90;;;;;;1955293;73;21101;-69
2022/04/01 10:27:44;;;;;;;3.00;2.80;;;4.30;99.90;;;;;;1938394;73;21067;-70
2022/04/01 10:30:13;;;;;;;3.05;2.77;;;4.30;99.90;;;;;;1942601;73;21055;-70
2022/04/01 10:32:42;;;;;;;5.43;3.50;;;4.40;99.90;;;;;;1949923;73;21459;-72
2022/04/01 10:35:11;;;;;;;2.87;2.65;;;4.50;99.90;;;;;;1940280;73;21129;-70
2022/04/01 10:37:39;;;;;;;2.75;2.55;;;4.60;99.90;;;;;;1938522;72;21111;-70
2022/04/01 10:40:18;;;;;;;2.75;2.55;;;4.70;99.90;;;;;;1950496;73;21035;-71
2022/04/01 10:42:48;;;;;;;2.80;2.27;;;4.70;99.90;;;;;;1950899;72;21547;-71
2022/04/01 10:45:21;;;;;;;2.37;2.17;;;4.80;99.90;;;;;;1947581;73;21015;-70
2022/04/01 10:53:48;;;;;;;2.50;2.30;;;4.70;99.90;;;;;;1940009;74;21146;-71
2022/04/01 10:56:24;;;;;;;2.20;2.10;;;4.60;99.90;;;;;;1933502;72;21222;-70
2022/04/01 10:59:13;;;;;;;2.70;2.50;;;4.70;99.90;;;;;;1941604;73;21059;-71
2022/04/01 11:01:57;;;;;;;2.62;2.40;;;4.70;99.90;;;;;;1939978;74;21070;-70
2022/04/01 11:04:26;;;;;;;2.02;1.92;;;4.70;99.90;;;;;;1937293;73;21079;-70
2022/04/01 11:06:55;;;;;;;2.20;2.00;;;4.60;99.90;;;;;;1942636;73;21152;-71
2022/04/01 11:09:45;;;;;;;2.33;2.13;;;4.50;99.90;;;;;;1941435;73;21137;-70
2022/04/01 11:12:23;;;;;;;2.30;2.10;;;4.40;99.90;;;;;;1943077;73;21431;-70
2022/04/01 11:15:07;;;;;;;3.22;2.60;;;4.60;99.90;;;;;;1939129;73;21314;-70
2022/04/01 11:17:49;;;;;;;3.33;2.40;;;4.70;99.90;;;;;;1947473;72;21092;-70
2022/04/01 11:20:28;;;;;;;2.25;2.05;;;4.70;99.90;;;;;;1952333;72;21152;-70
2022/04/01 11:23:03;;;;;;;2.10;2.00;;;4.60;99.90;;;;;;1952942;73;21486;-71
2022/04/01 11:25:35;;;;;;;2.10;1.95;;;4.50;99.90;;;;;;1940543;73;21125;-70
2022/04/01 11:28:14;;;;;;;2.22;2.02;;;4.70;99.90;;;;;;1956177;73;21222;-70
2022/04/01 11:30:47;;;;;;;2.27;1.95;;;4.60;99.90;;;;;;1938132;73;21090;-71
2022/04/01 11:33:16;;;;;;;1.92;1.80;;;4.50;99.90;;;;;;1941310;73;21117;-69
2022/04/01 11:35:45;;;;;;;2.00;1.90;;;4.50;99.90;;;;;;1941563;73;21093;-70
2022/04/01 11:38:18;;;;;;;2.20;2.00;;;4.60;99.90;;;;;;1943229;73;21070;-70
2022/04/01 11:40:47;;;;;;;1.77;1.67;;;4.50;99.90;;;;;;1948643;73;21081;-71
2022/04/01 11:43:15;;;;;;;3.85;1.87;;;4.50;99.90;;;;;;1949165;73;21061;-69
2022/04/01 11:45:47;;;;;;;1.95;1.75;;;4.50;99.90;;;;;;1939785;74;21074;-70
2022/04/01 11:48:22;;;;;;;2.87;2.37;;;4.70;99.90;;;;;;1935730;74;21069;-71
2022/04/01 11:50:52;;;;;;;3.10;1.82;;;4.80;99.90;;;;;;1940099;74;21718;-70
2022/04/01 11:53:24;;;;;;;1.80;1.53;;;4.90;99.90;;;;;;1948527;73;21073;-69
2022/04/01 11:55:53;;;;;;;1.70;1.60;;;4.80;99.90;;;;;;1944988;73;21078;-72
2022/04/01 11:58:21;;;;;;;2.30;2.10;;;4.90;99.90;;;;;;1939782;73;21046;-70
2022/04/01 12:00:50;;;;;;;2.15;2.00;;;4.90;99.90;;;;;;1955085;73;21109;-70
2022/04/01 12:03:20;;;;;;;2.15;2.00;;;4.80;99.90;;;;;;1947867;73;21062;-70
2022/04/01 12:05:53;;;;;;;5.17;2.33;;;4.60;99.90;;;;;;1940618;73;21032;-71
2022/04/01 12:11:07;;;;;;;1.90;1.80;;;4.50;99.90;;;;;;1942383;73;21063;-72
2022/04/01 12:13:35;;;;;;;2.10;2.00;;;4.60;99.90;;;;;;1939281;73;21473;-71
2022/04/01 12:16:02;;;;;;;1.80;1.70;;;4.70;99.90;;;;;;1943795;73;21548;-70
2022/04/01 12:18:30;;;;;;;2.22;2.10;;;4.90;99.90;;;;;;1920866;73;21182;-70
2022/04/01 12:20:59;;;;;;;1.92;1.70;;;5.20;99.90;;;;;;1943695;73;21475;-69
2022/04/01 12:23:30;;;;;;;2.17;2.00;;;5.20;99.90;;;;;;1939871;74;21078;-70
2022/04/01 12:25:57;;;;;;;2.33;2.12;;;5.10;99.90;;;;;;1942420;73;21113;-69
2022/04/01 12:28:49;;;;;;;2.37;2.17;;;4.90;99.90;;;;;;1939991;74;21027;-70
2022/04/01 12:31:19;;;;;;;2.52;2.12;;;4.80;99.90;;;;;;1938266;74;21041;-72
2022/04/01 12:33:50;;;;;;;1.67;1.57;;;4.70;99.90;;;;;;1941496;73;21124;-71
2022/04/01 12:36:34;;;;;;;2.35;2.15;;;4.80;99.90;;;;;;1950168;73;21068;-70
2022/04/01 12:39:05;;;;;;;2.75;2.52;;;4.80;99.90;;;;;;1937866;73;21051;-70
2022/04/01 12:41:32;;;;;;;2.95;2.65;;;4.70;99.90;;;;;;1937350;72;21509;-69
2022/04/01 12:44:02;;;;;;;3.02;2.75;;;4.70;99.90;;;;;;1938739;73;21063;-70
2022/04/01 12:46:34;;;;;;;3.67;3.05;;;4.70;99.90;;;;;;1940178;72;21097;-72
2022/04/01 12:49:16;;;;;;;2.95;2.75;;;4.70;99.90;;;;;;1943364;73;21059;-73
2022/04/01 12:51:52;;;;;;;3.10;2.70;;;4.50;99.90;;;;;;1940408;73;20996;-71
2022/04/01 12:54:37;;;;;;;3.40;3.10;;;4.60;99.90;;;;;;1940894;73;21112;-71
2022/04/01 12:57:00;;;;;;;3.17;2.90;;;4.40;99.90;;;;;;1943635;72;21091;-74
2022/04/01 12:59:28;;;;;;;3.10;2.80;;;4.40;99.90;;;;;;1940326;74;21186;-71
2022/04/01 13:02:06;;;;;;;3.33;3.00;;;4.20;99.90;;;;;;1945889;73;21070;-72
2022/04/01 13:04:42;;;;;;;3.33;3.02;;;4.10;99.90;;;;;;1947235;73;21085;-71
2022/04/01 13:07:21;;;;;;;3.15;2.80;;;4.20;99.90;;;;;;1943166;73;21404;-71
2022/04/01 13:09:57;;;;;;;3.20;2.90;;;4.30;99.90;;;;;;1945195;73;21047;-71
2022/04/01 13:12:40;;;;;;;3.70;3.37;;;4.30;99.90;;;;;;1940093;73;21461;-72
2022/04/01 13:15:17;;;;;;;5.80;3.95;;;4.40;99.90;;;;;;1938596;74;21077;-71
2022/04/01 13:17:50;;;;;;;3.80;3.40;;;4.50;99.90;;;;;;1937286;73;21039;-71
2022/04/01 13:20:19;;;;;;;4.22;3.67;;;4.30;99.90;;;;;;1957056;73;21018;-71
2022/04/01 13:22:47;;;;;;;4.73;3.73;;;4.20;99.90;;;;;;1944120;72;21074;-71
2022/04/01 13:25:15;;;;;;;4.03;3.67;;;4.00;99.90;;;;;;1953015;73;21127;-71
2022/04/01 13:27:43;;;;;;;4.85;4.30;;;3.90;99.90;;;;;;1945681;73;21245;-68
2022/04/01 13:30:11;;;;;;;4.42;4.03;;;4.20;99.90;;;;;;1938756;73;21130;-70
2022/04/01 13:32:38;;;;;;;7.30;4.87;;;4.30;99.90;;;;;;1940472;73;21135;-70